createdAt,value
2022-09-27T00:47:37.099Z,2.60
2022-09-27T00:50:13.681Z,2.72
2022-09-27T00:52:49.695Z,5.10
2022-09-27T00:55:23.551Z,3.13
2022-09-27T00:57:52.999Z,2.63
2022-09-27T01:00:23.519Z,3.25
2022-09-27T01:45:21.722Z,2.30
2022-09-27T01:48:05.379Z,2.10
2022-09-27T01:51:02.034Z,3.47
2022-09-27T01:53:35.729Z,2.15
2022-09-27T01:56:28.327Z,1.95
2022-09-27T01:59:08.715Z,2.72
2022-09-27T02:45:43.874Z,2.65
2022-09-27T02:48:24.397Z,2.97
2022-09-27T02:51:19.586Z,2.10
2022-09-27T02:54:07.846Z,1.70
2022-09-27T02:57:10.669Z,2.67
2022-09-27T03:00:01.933Z,2.03
2022-09-27T03:46:39.060Z,1.75
2022-09-27T03:49:08.356Z,1.90
2022-09-27T03:51:37.272Z,2.83
2022-09-27T03:54:06.326Z,2.13
2022-09-27T03:56:34.633Z,2.50
2022-09-27T03:59:03.677Z,1.83
2022-09-27T04:30:15.953Z,8.70
2022-09-27T04:33:07.338Z,7.80
2022-09-27T04:36:13.277Z,5.47
2022-09-27T04:38:49.232Z,9.10
2022-09-27T04:41:23.313Z,7.75
2022-09-27T04:43:55.425Z,5.63
2022-09-27T04:46:31.821Z,7.05
2022-09-27T04:49:01.951Z,6.50
2022-09-27T04:51:32.500Z,4.13
2022-09-27T04:54:01.988Z,3.67
2022-09-27T04:56:48.840Z,2.92
2022-09-27T04:59:17.775Z,2.63
2022-09-27T05:01:48.123Z,3.83
2022-09-27T05:04:38.914Z,3.58
2022-09-27T05:07:09.495Z,2.33
2022-09-27T05:09:45.244Z,2.30
2022-09-27T05:12:13.981Z,7.32
2022-09-27T05:14:48.251Z,1.90
2022-09-27T05:17:18.732Z,2.20
2022-09-27T05:20:11.352Z,2.53
2022-09-27T05:23:00.271Z,3.42
2022-09-27T05:25:29.063Z,3.22
2022-09-27T05:27:57.576Z,2.72
2022-09-27T05:30:27.433Z,3.15
2022-09-27T05:33:07.514Z,3.95
2022-09-27T05:35:59.667Z,4.07
2022-09-27T05:38:31.694Z,3.90
2022-09-27T05:41:04.010Z,3.22
2022-09-27T05:43:32.879Z,3.05
2022-09-27T05:46:05.465Z,2.10
2022-09-27T05:48:37.021Z,5.72
2022-09-27T05:51:08.600Z,2.33
2022-09-27T05:53:40.230Z,3.53
2022-09-27T05:56:15.288Z,4.90
2022-09-27T05:59:16.723Z,3.03
2022-09-27T06:02:03.741Z,1.70
2022-09-27T06:04:55.088Z,2.17
2022-09-27T06:07:41.618Z,2.72
2022-09-27T06:10:18.766Z,2.10
2022-09-27T06:12:47.887Z,3.05
2022-09-27T06:15:35.129Z,2.05
2022-09-27T06:18:06.242Z,2.83
2022-09-27T06:20:38.058Z,3.20
2022-09-27T06:23:09.322Z,5.68
2022-09-27T06:25:40.143Z,6.50
2022-09-27T06:28:23.723Z,4.07
2022-09-27T06:31:01.658Z,3.38
2022-09-27T06:33:49.137Z,2.60
2022-09-27T06:36:19.440Z,1.85
2022-09-27T06:38:49.795Z,2.10
2022-09-27T06:41:44.347Z,3.55
2022-09-27T06:44:28.722Z,3.22
2022-09-27T06:47:16.198Z,5.47
2022-09-27T06:50:05.602Z,3.17
2022-09-27T06:52:37.085Z,2.22
2022-09-27T06:55:07.405Z,2.55
2022-09-27T06:57:53.587Z,2.95
2022-09-27T07:00:26.580Z,2.97
2022-09-27T07:03:04.693Z,3.45
2022-09-27T07:06:01.473Z,1.80
2022-09-27T07:08:43.238Z,2.45
2022-09-27T07:11:12.701Z,1.75
2022-09-27T07:13:43.536Z,3.80
2022-09-27T07:16:14.410Z,3.15
2022-09-27T07:18:43.556Z,3.20
2022-09-27T07:21:13.511Z,2.75
2022-09-27T07:23:43.325Z,2.10
2022-09-27T07:26:14.499Z,2.88
2022-09-27T07:28:45.013Z,5.55
2022-09-27T07:31:18.071Z,2.15
2022-09-27T07:33:47.072Z,1.80
2022-09-27T07:36:15.915Z,2.40
2022-09-27T07:38:48.456Z,1.90
2022-09-27T07:41:19.995Z,2.30
2022-09-27T07:43:49.229Z,2.85
2022-09-27T07:46:18.089Z,2.90
2022-09-27T07:49:05.647Z,2.67
2022-09-27T07:51:51.996Z,1.67
2022-09-27T07:54:32.266Z,2.55
2022-09-27T07:57:14.800Z,2.97
2022-09-27T07:59:52.038Z,1.58
2022-09-27T08:02:22.672Z,1.63
2022-09-27T08:04:52.690Z,2.28
2022-09-27T08:07:21.508Z,2.10
2022-09-27T08:09:54.890Z,1.45
2022-09-27T08:12:24.287Z,1.83
2022-09-27T08:14:53.154Z,1.88
2022-09-27T08:17:22.279Z,2.33
2022-09-27T08:20:21.052Z,2.45
2022-09-27T08:23:05.425Z,2.10
2022-09-27T08:25:41.652Z,2.92
2022-09-27T08:28:30.212Z,1.48
2022-09-27T08:31:05.018Z,1.98
2022-09-27T08:33:40.487Z,1.80
2022-09-27T08:36:13.314Z,1.58
2022-09-27T08:38:42.435Z,1.50
2022-09-27T08:41:22.312Z,1.55
2022-09-27T08:44:05.086Z,1.77
2022-09-27T08:46:47.984Z,2.53
2022-09-27T08:49:25.156Z,2.67
2022-09-27T08:51:56.560Z,1.77
2022-09-27T08:54:30.218Z,2.85
2022-09-27T08:57:05.822Z,1.35
2022-09-27T08:59:41.465Z,1.50
2022-09-27T09:02:20.403Z,1.33
2022-09-27T09:04:57.697Z,1.40
2022-09-27T09:07:49.692Z,1.80
2022-09-27T09:10:51.061Z,1.60
2022-09-27T09:13:35.897Z,1.45
2022-09-27T09:16:18.638Z,1.58
2022-09-27T09:19:11.002Z,1.60
2022-09-27T09:22:11.486Z,2.25
2022-09-27T09:24:54.088Z,1.70
2022-09-27T09:27:37.278Z,1.45
2022-09-27T09:30:21.691Z,2.17
2022-09-27T09:33:16.561Z,2.17
2022-09-27T09:35:51.462Z,2.08
2022-09-27T09:38:25.104Z,1.40
2022-09-27T09:41:01.240Z,1.35
2022-09-27T09:43:36.380Z,1.50
2022-09-27T09:46:13.863Z,2.63
2022-09-27T09:48:50.105Z,1.65
2022-09-27T09:51:23.454Z,1.80
2022-09-27T09:53:59.146Z,1.40
2022-09-27T09:56:37.482Z,1.48
2022-09-27T09:59:13.757Z,1.30
2022-09-27T10:01:48.058Z,3.80
2022-09-27T10:04:23.326Z,1.40
2022-09-27T10:06:54.225Z,1.80
2022-09-27T10:09:25.708Z,1.70
2022-09-27T10:12:12.955Z,4.93
2022-09-27T10:14:46.365Z,1.48
2022-09-27T10:17:20.993Z,1.92
2022-09-27T10:19:54.212Z,1.40
2022-09-27T10:22:31.216Z,1.42
2022-09-27T10:25:07.944Z,2.25
2022-09-27T10:27:49.579Z,2.10
2022-09-27T10:30:28.726Z,1.30
2022-09-27T10:33:04.116Z,1.98
2022-09-27T10:35:45.703Z,1.67
2022-09-27T10:38:38.074Z,3.50
2022-09-27T10:41:26.637Z,1.55
2022-09-27T10:44:25.841Z,1.58
2022-09-27T10:47:16.487Z,1.27
2022-09-27T10:50:49.189Z,1.70
2022-09-27T10:53:25.372Z,3.20
2022-09-27T10:56:05.326Z,2.00
2022-09-27T10:58:37.726Z,2.25
2022-09-27T11:01:12.735Z,2.08
2022-09-27T11:04:02.001Z,3.30
2022-09-27T11:06:38.033Z,2.85
2022-09-27T11:09:19.972Z,3.15
2022-09-27T11:11:50.852Z,2.22
2022-09-27T11:14:23.183Z,2.88
2022-09-27T11:17:13.776Z,2.40
2022-09-27T11:20:08.887Z,2.70
2022-09-27T11:23:19.070Z,2.83
2022-09-27T11:26:11.860Z,1.80
2022-09-27T11:28:57.174Z,2.17
2022-09-27T11:32:09.886Z,3.78
2022-09-27T11:35:11.663Z,1.50
2022-09-27T11:37:53.555Z,2.05
2022-09-27T11:40:36.372Z,1.50
2022-09-27T11:43:27.075Z,1.70
2022-09-27T11:46:18.170Z,2.33
2022-09-27T11:49:13.766Z,2.22
2022-09-27T11:52:03.447Z,2.50
2022-09-27T11:54:56.239Z,1.77
2022-09-27T11:57:31.663Z,1.80
2022-09-27T12:00:20.684Z,1.92
2022-09-27T12:03:26.589Z,1.88
2022-09-27T12:06:07.827Z,2.92
2022-09-27T12:08:58.407Z,2.45
2022-09-27T12:11:34.310Z,1.67
2022-09-27T12:14:07.154Z,2.45
2022-09-27T12:16:38.301Z,1.40
2022-09-27T12:19:18.217Z,2.25
2022-09-27T12:22:06.368Z,2.00
2022-09-27T12:24:39.684Z,2.45
2022-09-27T12:27:35.368Z,2.83
2022-09-27T12:30:06.474Z,6.32
2022-09-27T12:32:45.592Z,4.95
2022-09-27T12:35:22.358Z,6.35
2022-09-27T12:37:59.381Z,5.72
2022-09-27T12:40:32.676Z,7.95
2022-09-27T12:43:13.668Z,3.80
2022-09-27T12:46:13.141Z,5.95
2022-09-27T12:48:48.796Z,6.10
2022-09-27T12:51:20.596Z,8.32
2022-09-27T12:54:11.390Z,5.65
2022-09-27T12:56:52.560Z,8.00
2022-09-27T12:59:44.072Z,3.17
2022-09-27T13:03:18.797Z,3.60
2022-09-27T13:06:27.820Z,5.55
2022-09-27T13:09:28.049Z,3.17
2022-09-27T13:12:10.847Z,5.45
2022-09-27T13:14:59.732Z,4.03
2022-09-27T13:17:54.555Z,6.22
2022-09-27T13:20:48.970Z,3.78
2022-09-27T13:24:01.503Z,4.03
2022-09-27T13:26:50.935Z,7.25
2022-09-27T13:29:34.733Z,5.00
2022-09-27T13:32:28.415Z,1.90
2022-09-27T13:35:20.349Z,2.20
2022-09-27T13:37:59.063Z,3.30
2022-09-27T13:40:44.259Z,13.10
2022-09-27T13:43:50.316Z,3.25
2022-09-27T13:46:53.302Z,2.92
2022-09-27T13:49:33.775Z,3.40
2022-09-27T13:52:33.846Z,4.05
2022-09-27T13:55:42.824Z,3.10
2022-09-27T13:58:51.436Z,2.85
2022-09-27T14:01:43.218Z,2.65
2022-09-27T14:04:20.392Z,2.95
2022-09-27T14:06:54.016Z,3.70
2022-09-27T14:09:27.531Z,3.28
2022-09-27T14:12:14.108Z,3.75
2022-09-27T14:14:43.815Z,3.35
2022-09-27T14:17:12.798Z,3.88
2022-09-27T14:19:45.231Z,2.67
2022-09-27T14:22:16.984Z,2.50
2022-09-27T14:25:00.418Z,2.55
2022-09-27T14:27:38.444Z,2.38
2022-09-27T14:30:17.964Z,3.08
2022-09-27T14:32:55.349Z,1.75
2022-09-27T14:36:06.988Z,3.20
2022-09-27T14:38:38.511Z,3.92
2022-09-27T14:41:17.579Z,1.50
2022-09-27T14:43:50.696Z,2.55
2022-09-27T14:46:36.948Z,2.40
2022-09-27T14:49:20.033Z,2.92
2022-09-27T14:51:53.654Z,4.28
2022-09-27T14:54:26.593Z,4.00
2022-09-27T14:56:56.832Z,1.65
2022-09-27T14:59:31.018Z,3.78
2022-09-27T15:02:02.005Z,3.97
2022-09-27T15:04:33.036Z,3.47
2022-09-27T15:07:03.407Z,2.72
2022-09-27T15:09:33.443Z,1.73
2022-09-27T15:12:05.224Z,1.55
2022-09-27T15:14:41.331Z,3.40
2022-09-27T15:17:18.489Z,2.30
2022-09-27T15:20:02.378Z,1.50
2022-09-27T15:22:44.773Z,3.05
2022-09-27T15:25:24.797Z,3.42
2022-09-27T15:27:55.613Z,2.40
2022-09-27T15:30:30.263Z,3.85
2022-09-27T15:32:59.036Z,2.70
2022-09-27T15:35:33.155Z,4.07
2022-09-27T15:38:26.708Z,4.82
2022-09-27T15:41:14.670Z,2.05
2022-09-27T15:43:46.585Z,2.40
2022-09-27T15:46:37.561Z,4.72
2022-09-27T15:49:38.964Z,2.28
2022-09-27T15:52:07.791Z,6.97
2022-09-27T15:54:38.232Z,2.83
2022-09-27T15:57:07.758Z,3.42
2022-09-27T15:59:37.641Z,4.32
2022-09-27T16:02:17.324Z,4.90
2022-09-27T16:04:46.132Z,2.83
2022-09-27T16:07:15.752Z,2.58
2022-09-27T16:09:45.159Z,5.20
2022-09-27T16:12:14.046Z,1.88
2022-09-27T16:14:42.731Z,4.35
2022-09-27T16:17:12.797Z,1.85
2022-09-27T16:19:41.774Z,6.45
2022-09-27T16:22:10.153Z,4.35
2022-09-27T16:24:38.579Z,2.08
2022-09-27T16:27:07.332Z,1.92
2022-09-27T16:29:35.496Z,3.53
2022-09-27T16:32:06.940Z,2.13
2022-09-27T16:34:36.809Z,2.85
2022-09-27T16:37:05.744Z,2.92
2022-09-27T16:39:33.986Z,3.40
2022-09-27T16:42:05.856Z,3.60
2022-09-27T16:44:36.225Z,2.58
2022-09-27T16:47:07.832Z,2.95
2022-09-27T16:49:55.030Z,2.47
2022-09-27T16:52:23.312Z,2.05
2022-09-27T16:54:51.795Z,1.60
2022-09-27T16:57:20.012Z,2.15
2022-09-27T16:59:48.322Z,1.45
2022-09-27T17:02:18.089Z,2.72
2022-09-27T17:04:47.969Z,2.70
2022-09-27T17:07:16.121Z,2.00
2022-09-27T17:09:45.271Z,1.90
2022-09-27T17:12:13.846Z,4.78
2022-09-27T17:14:42.799Z,2.08
2022-09-27T17:17:11.000Z,2.75
2022-09-27T17:19:39.429Z,3.97
2022-09-27T17:22:09.637Z,1.63
2022-09-27T17:24:38.073Z,2.72
2022-09-27T17:27:06.283Z,5.25
2022-09-27T17:29:34.524Z,2.38
2022-09-27T17:32:03.113Z,7.20
2022-09-27T17:34:32.127Z,3.50
2022-09-27T17:37:00.825Z,3.70
2022-09-27T17:39:30.364Z,6.43
2022-09-27T17:41:59.737Z,4.28
2022-09-27T17:44:28.210Z,5.30
2022-09-27T17:47:10.338Z,4.95
2022-09-27T17:49:55.375Z,5.68
2022-09-27T17:52:25.661Z,5.93
2022-09-27T17:54:57.548Z,5.55
2022-09-27T17:57:26.037Z,5.55
2022-09-27T17:59:54.709Z,6.47
2022-09-27T18:02:23.601Z,5.93
2022-09-27T18:04:52.004Z,6.68
2022-09-27T18:07:21.422Z,5.28
2022-09-27T18:09:51.417Z,6.70
2022-09-27T18:12:22.213Z,5.40
2022-09-27T18:14:50.876Z,5.50
2022-09-27T18:17:20.866Z,9.50
2022-09-27T18:19:49.438Z,6.75
2022-09-27T18:22:17.751Z,5.40
2022-09-27T18:24:46.958Z,6.53
2022-09-27T18:27:19.542Z,10.10
2022-09-27T18:29:49.031Z,5.63
2022-09-27T18:32:18.922Z,4.10
2022-09-27T18:34:47.497Z,7.32
2022-09-27T18:37:15.891Z,7.90
2022-09-27T18:39:44.218Z,8.88
2022-09-27T18:42:12.535Z,5.93
2022-09-27T18:44:40.916Z,6.18
2022-09-27T18:47:10.808Z,3.55
2022-09-27T18:49:39.443Z,3.83
2022-09-27T18:52:07.998Z,3.97
2022-09-27T18:54:38.353Z,6.38
2022-09-27T18:57:06.784Z,8.95
2022-09-27T18:59:34.913Z,9.73
2022-09-27T19:02:03.114Z,8.18
2022-09-27T19:04:33.041Z,11.35
2022-09-27T19:07:01.930Z,10.45
2022-09-27T19:09:31.308Z,10.63
2022-09-27T19:12:00.256Z,37.22
2022-09-27T19:14:29.941Z,23.67
2022-09-27T19:16:58.490Z,23.85
2022-09-27T19:19:27.102Z,24.23
2022-09-27T19:21:56.666Z,24.05
2022-09-27T19:24:25.551Z,30.80
2022-09-27T19:26:56.076Z,23.10
2022-09-27T19:29:24.968Z,25.23
2022-09-27T19:31:53.470Z,21.38
2022-09-27T19:34:22.634Z,21.60
2022-09-27T19:36:51.192Z,19.40
2022-09-27T19:39:21.492Z,22.25
2022-09-27T19:41:50.503Z,19.50
2022-09-27T19:44:19.064Z,28.50
2022-09-27T19:46:48.626Z,21.15
2022-09-27T19:49:18.947Z,20.38
2022-09-27T19:51:47.663Z,21.98
2022-09-27T19:54:16.535Z,18.17
2022-09-27T19:56:49.742Z,22.10
2022-09-27T19:59:18.803Z,19.67
2022-09-27T20:01:48.278Z,17.50
2022-09-27T20:04:16.860Z,18.92
2022-09-27T20:06:47.575Z,13.55
2022-09-27T20:09:18.626Z,15.82
2022-09-27T20:11:49.404Z,18.63
2022-09-27T20:14:19.086Z,22.55
2022-09-27T20:16:47.783Z,14.75
2022-09-27T20:19:16.621Z,18.08
2022-09-27T20:21:46.351Z,16.25
2022-09-27T20:24:14.852Z,17.38
2022-09-27T20:26:44.581Z,17.85
2022-09-27T20:29:14.240Z,16.20
2022-09-27T20:31:57.018Z,17.17
2022-09-27T20:34:31.685Z,15.82
2022-09-27T20:37:00.237Z,12.50
2022-09-27T20:39:29.534Z,13.30
2022-09-27T20:41:58.210Z,4.93
2022-09-27T20:44:28.201Z,5.95
2022-09-27T20:46:56.714Z,3.45
2022-09-27T20:49:25.936Z,3.70
2022-09-27T20:51:54.574Z,3.45
2022-09-27T20:54:22.707Z,3.75
2022-09-27T20:56:51.250Z,4.20
2022-09-27T20:59:22.093Z,3.60
2022-09-27T21:01:53.633Z,5.20
2022-09-27T21:04:24.121Z,4.90
2022-09-27T21:06:54.385Z,2.90
2022-09-27T21:09:22.947Z,6.68
2022-09-27T21:11:54.359Z,6.13
2022-09-27T21:14:22.804Z,6.72
2022-09-27T21:16:52.480Z,2.65
2022-09-27T21:19:21.145Z,5.13
2022-09-27T21:21:52.564Z,5.85
2022-09-27T21:24:20.869Z,4.18
2022-09-27T21:26:49.891Z,5.47
2022-09-27T21:29:18.880Z,2.40
2022-09-27T21:31:47.572Z,8.65
2022-09-27T21:34:17.677Z,3.72
2022-09-27T21:36:45.872Z,5.55
2022-09-27T21:39:15.541Z,3.90
2022-09-27T21:41:43.798Z,6.85
2022-09-27T21:44:13.085Z,4.00
2022-09-27T21:46:43.489Z,5.25
2022-09-27T21:49:12.017Z,4.82
2022-09-27T21:51:44.544Z,4.30
2022-09-27T21:54:16.367Z,3.42
2022-09-27T21:56:45.582Z,4.43
2022-09-27T21:59:18.525Z,5.10
2022-09-27T22:01:48.122Z,5.03
2022-09-27T22:04:16.571Z,4.82
2022-09-27T22:06:46.161Z,6.05
2022-09-27T22:09:17.305Z,3.97
2022-09-27T22:11:48.102Z,6.10
2022-09-27T22:14:18.301Z,3.63
2022-09-27T22:16:46.752Z,4.75
2022-09-27T22:19:16.672Z,2.67
2022-09-27T22:21:47.247Z,4.88
2022-09-27T22:24:19.823Z,4.50
2022-09-27T22:26:51.857Z,2.83
2022-09-27T22:29:21.053Z,3.47
2022-09-27T22:31:49.775Z,5.68
2022-09-27T22:34:29.010Z,7.68
2022-09-27T22:37:00.951Z,5.28
2022-09-27T22:39:30.812Z,3.97
2022-09-27T22:42:01.103Z,5.13
2022-09-27T22:44:30.296Z,4.53
2022-09-27T22:46:58.673Z,5.18
2022-09-27T22:49:26.911Z,3.47
2022-09-27T22:51:55.270Z,5.10
2022-09-27T22:54:25.267Z,3.75
2022-09-27T22:56:57.413Z,7.97
2022-09-27T22:59:27.061Z,10.65
2022-09-27T23:47:40.523Z,11.70
2022-09-27T23:50:11.072Z,10.60
2022-09-27T23:52:39.991Z,8.10
2022-09-27T23:55:12.124Z,7.85
2022-09-27T23:57:40.480Z,10.98
